createdAt,value
2022-09-11T00:01:00.716Z,1.40
2022-09-11T00:11:18.553Z,1.70
2022-09-11T00:21:21.061Z,1.50
2022-09-11T00:31:26.212Z,1.27
2022-09-11T00:41:36.364Z,2.38
2022-09-11T00:51:38.920Z,1.40
2022-09-11T01:01:42.094Z,1.10
2022-09-11T01:11:57.251Z,1.73
2022-09-11T01:22:17.640Z,1.42
2022-09-11T01:32:28.055Z,1.48
2022-09-11T01:42:34.276Z,2.10
2022-09-11T01:52:53.343Z,1.40
2022-09-11T02:03:10.673Z,1.92
2022-09-11T02:13:27.866Z,1.98
2022-09-11T02:23:30.200Z,1.88
2022-09-11T02:33:36.142Z,2.05
2022-09-11T02:44:08.310Z,1.48
2022-09-11T02:54:41.209Z,1.67
2022-09-11T03:04:43.420Z,1.80
2022-09-11T03:14:45.603Z,1.80
2022-09-11T03:24:48.351Z,2.00
2022-09-11T03:34:50.702Z,1.98
2022-09-11T03:44:52.809Z,1.92
2022-09-11T03:54:54.918Z,2.08
2022-09-11T04:04:57.041Z,2.45
2022-09-11T04:14:59.203Z,2.78
2022-09-11T04:25:02.246Z,2.47
2022-09-11T04:35:04.578Z,2.00
2022-09-11T04:45:07.333Z,1.98
2022-09-11T04:55:09.553Z,2.03
2022-09-11T05:05:12.290Z,1.90
2022-09-11T05:15:14.505Z,2.88
2022-09-11T05:25:18.604Z,3.30
2022-09-11T05:35:24.217Z,3.60
2022-09-11T05:45:26.760Z,3.30
2022-09-11T05:55:28.882Z,6.55
2022-09-11T06:05:30.967Z,3.90
2022-09-11T06:15:46.189Z,1.95
2022-09-11T06:25:49.138Z,1.80
2022-09-11T06:36:02.021Z,1.30
2022-09-11T06:46:24.169Z,1.75
2022-09-11T06:56:26.663Z,2.50
2022-09-11T07:06:33.026Z,2.78
2022-09-11T07:16:35.403Z,2.90
2022-09-11T07:26:37.592Z,3.15
2022-09-11T07:36:39.832Z,1.95
2022-09-11T07:46:42.004Z,2.45
2022-09-11T07:56:44.199Z,2.50
2022-09-11T08:06:46.492Z,2.70
2022-09-11T08:16:48.692Z,3.00
2022-09-11T08:26:50.897Z,3.40
2022-09-11T08:36:53.219Z,3.50
2022-09-11T08:47:10.161Z,5.05
2022-09-11T08:57:28.185Z,4.80
2022-09-11T09:08:07.883Z,5.35
2022-09-11T09:18:36.598Z,3.67
2022-09-11T09:28:43.900Z,3.10
2022-09-11T09:38:46.610Z,6.43
2022-09-11T09:48:49.527Z,6.00
2022-09-11T09:59:02.708Z,8.60
2022-09-11T10:09:05.509Z,6.50
2022-09-11T10:19:37.959Z,8.27
2022-09-11T10:29:50.923Z,8.10
2022-09-11T10:39:55.928Z,6.68
2022-09-11T10:50:18.404Z,6.45
2022-09-11T11:00:30.558Z,6.93
2022-09-11T11:11:06.285Z,6.40
2022-09-11T11:21:27.508Z,4.13
2022-09-11T11:32:06.851Z,4.30
2022-09-11T11:42:27.023Z,5.07
2022-09-11T11:52:32.100Z,4.97
2022-09-11T12:02:51.531Z,4.88
2022-09-11T12:12:58.590Z,5.20
2022-09-11T12:23:01.500Z,4.90
2022-09-11T12:33:48.688Z,7.40
2022-09-11T12:43:51.500Z,7.85
2022-09-11T12:54:00.304Z,9.98
2022-09-11T13:04:11.519Z,11.43
2022-09-11T13:14:29.221Z,12.80
2022-09-11T13:24:33.766Z,10.33
2022-09-11T13:34:36.806Z,8.43
2022-09-11T13:44:47.254Z,9.85
2022-09-11T13:54:52.667Z,9.20
2022-09-11T14:05:12.553Z,8.57
2022-09-11T14:15:27.989Z,8.05
2022-09-11T14:25:30.221Z,8.82
2022-09-11T14:35:32.546Z,8.73
2022-09-11T14:45:34.701Z,8.63
2022-09-11T14:55:36.800Z,7.88
2022-09-11T15:05:38.909Z,6.00
2022-09-11T15:15:41.096Z,7.72
2022-09-11T15:25:43.662Z,8.23
2022-09-11T15:35:45.898Z,11.20
2022-09-11T15:45:49.357Z,8.70
2022-09-11T15:56:04.541Z,8.38
2022-09-11T16:06:07.438Z,9.82
2022-09-11T16:16:10.051Z,10.05
2022-09-11T16:26:14.737Z,8.35
2022-09-11T16:36:19.649Z,9.32
2022-09-11T16:46:25.521Z,7.75
2022-09-11T16:56:27.810Z,8.90
2022-09-11T17:06:30.389Z,6.57
2022-09-11T17:16:35.788Z,6.70
2022-09-11T17:26:38.697Z,6.97
2022-09-11T17:36:41.258Z,7.13
2022-09-11T17:46:43.439Z,7.25
2022-09-11T17:56:45.578Z,7.00
2022-09-11T18:06:47.759Z,8.93
2022-09-11T18:16:50.182Z,12.30
2022-09-11T18:26:58.552Z,8.73
2022-09-11T18:37:03.157Z,12.73
2022-09-11T18:47:05.433Z,8.38
2022-09-11T18:57:07.572Z,10.70
2022-09-11T19:07:10.199Z,7.28
2022-09-11T19:17:12.723Z,6.20
2022-09-11T19:27:15.327Z,5.05
2022-09-11T19:37:20.154Z,5.60
2022-09-11T19:47:22.414Z,5.93
2022-09-11T19:57:24.765Z,6.57
2022-09-11T20:07:27.418Z,7.60
2022-09-11T20:17:29.573Z,7.75
2022-09-11T20:27:33.214Z,5.97
2022-09-11T20:40:12.537Z,5.55
2022-09-11T20:50:14.901Z,6.75
2022-09-11T21:00:17.040Z,6.25
2022-09-11T21:10:19.148Z,5.22
2022-09-11T21:20:21.418Z,6.13
2022-09-11T21:30:23.721Z,5.75
2022-09-11T21:40:25.807Z,6.95
2022-09-11T21:50:27.927Z,7.25
2022-09-11T22:00:30.088Z,7.40
2022-09-11T22:10:32.409Z,6.43
2022-09-11T22:20:36.834Z,6.15
2022-09-11T22:30:43.389Z,6.70
2022-09-11T22:40:45.817Z,6.80
2022-09-11T22:50:48.204Z,6.50
2022-09-11T23:00:52.351Z,5.57
2022-09-11T23:10:54.478Z,4.05
2022-09-11T23:20:58.383Z,4.43
2022-09-11T23:31:01.973Z,3.00
2022-09-11T23:41:04.520Z,3.20
2022-09-11T23:51:08.737Z,2.88
